Time;durP1;ratioP1;P1;durP2;ratioP2;P2;SDS_P1;SDS_P2;PMS_P1;PMS_P2;Temp;Humidity;BMP_temperature;BMP_pressure;BME280_temperature;BME280_humidity;BME280_pressure;Samples;Min_cycle;Max_cycle;Signal;HPM_P1;HPM_P2
2022/01/14 00:01:44;;;;;;;64.43;15.25;;;7.80;99.90;;;;;;5089121;28;20518;-73
2022/01/14 00:04:10;;;;;;;67.40;15.52;;;7.80;99.90;;;;;;5108937;28;20477;-72
2022/01/14 00:06:37;;;;;;;66.13;14.60;;;7.80;99.90;;;;;;5109034;27;20438;-73
2022/01/14 00:09:06;;;;;;;80.88;14.50;;;7.80;99.90;;;;;;5092029;28;20447;-73
2022/01/14 00:11:38;;;;;;;91.82;15.25;;;7.80;99.90;;;;;;5113170;27;20410;-72
2022/01/14 00:16:30;;;;;;;44.60;15.30;;;7.80;99.90;;;;;;5109198;28;20461;-72
2022/01/14 00:18:57;;;;;;;48.78;15.05;;;7.90;99.90;;;;;;5114589;27;20411;-72
2022/01/14 00:21:24;;;;;;;45.97;15.48;;;7.90;99.90;;;;;;5107804;28;20419;-72
2022/01/14 00:23:53;;;;;;;38.93;15.90;;;7.90;99.90;;;;;;5110101;28;20880;-72
2022/01/14 00:31:56;;;;;;;41.35;16.02;;;7.90;99.90;;;;;;5110735;27;20426;-73
2022/01/14 00:34:22;;;;;;;40.53;15.40;;;7.90;99.90;;;;;;5110233;27;20411;-73
2022/01/14 00:36:47;;;;;;;41.33;15.63;;;7.90;99.90;;;;;;5110576;27;20413;-72
2022/01/14 00:39:14;;;;;;;37.97;16.10;;;7.90;99.90;;;;;;5108055;28;20490;-73
2022/01/14 00:41:40;;;;;;;41.35;16.38;;;7.90;99.90;;;;;;5108640;28;20913;-73
2022/01/14 00:44:11;;;;;;;42.60;16.90;;;7.90;99.90;;;;;;5110201;28;20423;-73
2022/01/14 00:46:41;;;;;;;40.05;17.63;;;7.90;99.90;;;;;;5106049;28;20463;-73
2022/01/14 00:49:07;;;;;;;46.88;17.52;;;7.90;99.90;;;;;;5107874;28;20502;-73
2022/01/14 00:51:34;;;;;;;47.58;19.20;;;7.80;99.90;;;;;;5107260;27;20509;-73
2022/01/14 00:54:00;;;;;;;61.25;20.40;;;7.80;99.90;;;;;;5110916;27;20470;-73
2022/01/14 00:56:31;;;;;;;55.60;20.03;;;7.80;99.90;;;;;;5108746;27;20432;-73
2022/01/14 00:59:16;;;;;;;49.58;19.88;;;7.80;99.90;;;;;;5116375;27;20418;-74
2022/01/14 01:01:52;;;;;;;51.13;19.95;;;7.80;99.90;;;;;;5105376;28;20487;-72
2022/01/14 01:04:21;;;;;;;52.85;20.27;;;7.80;99.90;;;;;;5109185;27;20444;-72
2022/01/14 01:06:48;;;;;;;45.10;18.77;;;7.90;99.90;;;;;;5107609;27;20884;-73
2022/01/14 01:09:15;;;;;;;47.83;18.73;;;7.90;99.90;;;;;;5109784;28;20457;-73
2022/01/14 01:12:05;;;;;;;39.83;18.93;;;7.80;99.90;;;;;;5112875;27;20400;-72
2022/01/14 01:14:41;;;;;;;46.05;19.80;;;7.90;99.90;;;;;;5122995;27;20920;-72
2022/01/14 01:17:07;;;;;;;44.55;19.50;;;7.80;99.90;;;;;;5113162;27;20407;-72
2022/01/14 01:19:33;;;;;;;45.35;20.52;;;7.80;99.90;;;;;;5116992;27;20399;-72
2022/01/14 01:21:59;;;;;;;50.53;21.17;;;7.80;99.90;;;;;;5106680;28;20415;-72
2022/01/14 01:24:36;;;;;;;54.23;22.03;;;7.80;99.90;;;;;;5104944;28;20418;-72
2022/01/14 01:27:08;;;;;;;55.95;22.10;;;7.80;99.90;;;;;;5109049;27;20416;-72
2022/01/14 01:32:04;;;;;;;51.28;22.90;;;7.80;99.90;;;;;;5108240;28;20773;-72
2022/01/14 01:34:29;;;;;;;57.92;23.02;;;7.80;99.90;;;;;;5116267;27;20419;-73
2022/01/14 01:36:57;;;;;;;52.70;23.60;;;7.80;99.90;;;;;;5106845;28;20391;-72
2022/01/14 01:39:25;;;;;;;59.07;23.17;;;7.80;99.90;;;;;;5090623;27;20406;-73
2022/01/14 01:41:54;;;;;;;55.00;23.30;;;7.80;99.90;;;;;;5106058;28;20396;-73
2022/01/14 01:44:21;;;;;;;60.20;23.65;;;7.80;99.90;;;;;;5111215;27;20724;-72
2022/01/14 01:46:48;;;;;;;58.50;23.63;;;7.80;99.90;;;;;;5090024;28;20396;-73
2022/01/14 01:49:16;;;;;;;57.15;22.77;;;7.80;99.90;;;;;;5104135;28;20412;-72
2022/01/14 01:51:44;;;;;;;52.45;22.33;;;7.80;99.90;;;;;;5107119;27;20897;-73
2022/01/14 01:54:10;;;;;;;53.58;22.65;;;7.80;99.90;;;;;;5106486;28;20400;-72
2022/01/14 01:56:36;;;;;;;51.50;22.00;;;7.80;99.90;;;;;;5106568;28;20746;-72
2022/01/14 01:59:02;;;;;;;53.13;22.48;;;7.80;99.90;;;;;;5108998;28;20412;-71
2022/01/14 02:01:28;;;;;;;52.00;21.65;;;7.80;99.90;;;;;;5106822;28;20530;-71
2022/01/14 02:03:55;;;;;;;51.88;21.80;;;7.80;99.90;;;;;;5104532;28;20416;-72
2022/01/14 02:06:22;;;;;;;49.93;21.77;;;7.80;99.90;;;;;;5103626;27;20416;-71
2022/01/14 02:08:48;;;;;;;50.93;21.87;;;7.80;99.90;;;;;;5108510;28;20443;-71
2022/01/14 02:11:14;;;;;;;49.77;21.10;;;7.80;99.90;;;;;;5106830;28;20400;-73
2022/01/14 02:13:41;;;;;;;50.67;20.53;;;7.80;99.90;;;;;;5107409;28;20450;-73
2022/01/14 02:16:32;;;;;;;51.40;20.35;;;7.70;99.90;;;;;;5114365;28;20415;-72
2022/01/14 02:24:34;;;;;;;47.28;18.08;;;7.70;99.90;;;;;;5108026;27;20400;-72
2022/01/14 02:27:01;;;;;;;48.73;18.53;;;7.70;99.90;;;;;;5110881;28;20430;-73
2022/01/14 02:29:26;;;;;;;46.90;17.65;;;7.80;99.90;;;;;;5114145;27;20489;-74
2022/01/14 02:31:52;;;;;;;42.03;17.47;;;7.70;99.90;;;;;;5109627;27;20438;-73
2022/01/14 02:34:18;;;;;;;44.90;16.88;;;7.80;99.90;;;;;;5120745;27;20449;-72
2022/01/14 02:36:46;;;;;;;45.33;17.55;;;7.80;99.90;;;;;;5111015;27;20954;-72
2022/01/14 02:39:14;;;;;;;41.50;16.90;;;7.70;99.90;;;;;;5108400;27;20482;-72
2022/01/14 02:41:42;;;;;;;42.10;16.63;;;7.80;99.90;;;;;;5110269;27;20521;-72
2022/01/14 02:44:22;;;;;;;46.30;16.80;;;7.80;99.90;;;;;;5093631;27;20939;-72
2022/01/14 02:46:54;;;;;;;38.92;16.15;;;7.80;99.90;;;;;;5109815;28;20407;-73
2022/01/14 02:49:22;;;;;;;38.87;16.60;;;7.80;99.90;;;;;;5125585;27;20881;-72
2022/01/14 02:51:48;;;;;;;37.80;16.42;;;7.70;99.90;;;;;;5109490;27;20907;-73
2022/01/14 02:54:20;;;;;;;37.70;15.60;;;7.70;99.90;;;;;;5110921;27;20772;-74
2022/01/14 02:56:48;;;;;;;41.00;16.38;;;7.70;99.90;;;;;;5109738;27;20824;-73
2022/01/14 02:59:16;;;;;;;46.63;16.50;;;7.70;99.90;;;;;;5112471;27;20943;-73
2022/01/14 03:01:44;;;;;;;43.42;16.17;;;7.70;99.90;;;;;;5108427;27;20423;-73
2022/01/14 03:04:13;;;;;;;48.10;16.52;;;7.60;99.90;;;;;;5110023;27;20871;-73
2022/01/14 03:06:39;;;;;;;51.45;17.40;;;7.60;99.90;;;;;;5110059;28;20947;-72
2022/01/14 03:09:05;;;;;;;44.20;16.42;;;7.60;99.90;;;;;;5121123;27;20408;-73
2022/01/14 03:11:35;;;;;;;42.10;15.55;;;7.60;99.90;;;;;;5111348;27;20474;-73
2022/01/14 03:14:02;;;;;;;46.10;15.60;;;7.60;99.90;;;;;;5109881;28;22027;-72
2022/01/14 03:16:29;;;;;;;45.63;14.95;;;7.60;99.90;;;;;;5120207;27;20514;-73
2022/01/14 03:19:05;;;;;;;42.92;14.50;;;7.60;99.90;;;;;;5111672;27;20412;-73
2022/01/14 03:21:36;;;;;;;38.70;14.20;;;7.60;99.90;;;;;;5116303;27;20412;-73
2022/01/14 03:24:15;;;;;;;41.22;14.57;;;7.60;99.90;;;;;;5110524;28;20415;-73
2022/01/14 03:26:41;;;;;;;46.13;14.95;;;7.60;99.90;;;;;;5108608;27;20427;-72
2022/01/14 03:29:07;;;;;;;51.53;14.10;;;7.60;99.90;;;;;;5109897;28;20908;-73
2022/01/14 03:31:32;;;;;;;43.97;14.20;;;7.60;99.90;;;;;;5113022;27;20417;-73
2022/01/14 03:33:58;;;;;;;42.63;14.63;;;7.60;99.90;;;;;;5111480;27;20408;-74
2022/01/14 03:36:24;;;;;;;41.60;12.93;;;7.60;99.90;;;;;;5109418;28;20483;-73
2022/01/14 03:38:50;;;;;;;44.42;13.48;;;7.60;99.90;;;;;;5111577;27;20396;-73
2022/01/14 03:41:16;;;;;;;43.30;12.77;;;7.60;99.90;;;;;;5108507;27;20450;-74
2022/01/14 03:43:42;;;;;;;37.88;12.45;;;7.60;99.90;;;;;;5110052;28;20419;-73
2022/01/14 03:46:07;;;;;;;39.63;12.25;;;7.60;99.90;;;;;;5109474;28;20415;-72
2022/01/14 03:48:33;;;;;;;44.20;12.43;;;7.60;99.90;;;;;;5110639;28;20911;-73
2022/01/14 03:50:59;;;;;;;38.75;11.55;;;7.60;99.90;;;;;;5107376;28;20412;-74
2022/01/14 03:53:25;;;;;;;43.78;12.60;;;7.60;99.90;;;;;;5114188;27;20436;-73
2022/01/14 03:55:50;;;;;;;39.70;12.87;;;7.60;99.90;;;;;;5111034;27;20392;-72
2022/01/14 03:58:16;;;;;;;38.95;12.65;;;7.60;99.90;;;;;;5111179;27;20416;-73
2022/01/14 04:00:42;;;;;;;42.00;13.57;;;7.60;99.90;;;;;;5107867;27;20416;-72
2022/01/14 04:03:07;;;;;;;43.05;14.15;;;7.70;99.90;;;;;;5108661;28;20419;-72
2022/01/14 04:05:34;;;;;;;41.73;14.90;;;7.70;99.90;;;;;;5111273;28;20810;-73
2022/01/14 04:08:01;;;;;;;43.90;15.57;;;7.80;99.90;;;;;;5113346;27;20426;-72
2022/01/14 04:10:27;;;;;;;46.13;15.67;;;7.80;99.90;;;;;;5107077;28;20400;-72
2022/01/14 04:13:01;;;;;;;41.95;14.65;;;7.90;99.90;;;;;;5108321;27;20476;-72
2022/01/14 04:15:37;;;;;;;50.60;15.90;;;7.90;99.90;;;;;;5109350;28;20507;-71
2022/01/14 04:18:08;;;;;;;49.55;16.85;;;8.00;99.90;;;;;;5109846;28;20746;-71
2022/01/14 04:20:35;;;;;;;56.43;18.20;;;8.00;99.90;;;;;;5110813;27;20477;-72
2022/01/14 04:23:01;;;;;;;54.15;18.88;;;8.10;99.90;;;;;;5108833;27;20408;-73
2022/01/14 04:25:27;;;;;;;54.40;19.30;;;8.10;99.90;;;;;;5110179;27;20484;-72
2022/01/14 04:27:53;;;;;;;57.13;20.75;;;8.20;99.90;;;;;;5103529;28;20424;-73
2022/01/14 04:30:19;;;;;;;62.08;22.52;;;8.20;99.90;;;;;;5109224;27;20487;-73
2022/01/14 04:32:45;;;;;;;64.22;23.02;;;8.20;99.90;;;;;;5107949;28;20960;-73
2022/01/14 04:35:11;;;;;;;59.07;23.40;;;8.20;99.90;;;;;;5107482;27;20400;-72
2022/01/14 04:37:37;;;;;;;58.53;24.33;;;8.30;99.90;;;;;;5106035;27;20803;-72
2022/01/14 04:40:03;;;;;;;55.72;24.17;;;8.30;99.90;;;;;;5109514;27;20447;-72
2022/01/14 04:42:29;;;;;;;56.67;23.58;;;8.30;99.90;;;;;;5095073;27;20750;-71
2022/01/14 04:44:56;;;;;;;51.20;23.40;;;8.30;99.90;;;;;;5120021;27;20439;-72
2022/01/14 04:47:32;;;;;;;57.40;23.02;;;8.40;99.90;;;;;;5108189;27;20423;-73
2022/01/14 04:49:59;;;;;;;52.00;23.90;;;8.40;99.90;;;;;;5108057;28;20418;-72
2022/01/14 04:52:28;;;;;;;50.90;23.63;;;8.40;99.90;;;;;;5107847;27;20433;-72
2022/01/14 04:54:55;;;;;;;56.67;22.73;;;8.40;99.90;;;;;;5106974;28;20411;-73
2022/01/14 04:57:21;;;;;;;45.95;22.42;;;8.50;99.90;;;;;;5108047;27;20407;-72
2022/01/14 04:59:49;;;;;;;51.10;21.75;;;8.50;99.90;;;;;;5112081;27;20404;-73
2022/01/14 05:02:15;;;;;;;52.10;21.25;;;8.50;99.90;;;;;;5107302;27;20425;-74
2022/01/14 05:04:42;;;;;;;50.17;20.95;;;8.50;99.90;;;;;;5107341;27;20438;-75
2022/01/14 05:07:12;;;;;;;45.30;20.80;;;8.50;99.90;;;;;;5106587;28;20897;-74
2022/01/14 05:09:42;;;;;;;47.20;21.13;;;8.50;99.90;;;;;;5105144;28;20406;-73
2022/01/14 05:12:10;;;;;;;51.17;20.48;;;8.50;99.90;;;;;;5100006;28;20419;-73
2022/01/14 05:14:37;;;;;;;46.87;19.73;;;8.50;99.90;;;;;;5100161;28;20744;-72
2022/01/14 05:17:03;;;;;;;52.05;20.80;;;8.50;99.90;;;;;;5097018;27;20426;-73
2022/01/14 05:19:29;;;;;;;44.22;20.17;;;8.50;99.90;;;;;;5105162;28;20872;-73
2022/01/14 05:21:54;;;;;;;43.78;20.08;;;8.50;99.90;;;;;;5108460;27;20423;-73
2022/01/14 05:24:20;;;;;;;52.67;20.00;;;8.60;99.90;;;;;;5097437;28;20589;-75
2022/01/14 05:26:45;;;;;;;43.78;20.52;;;8.60;99.90;;;;;;5115072;27;20407;-75
2022/01/14 05:29:11;;;;;;;44.83;20.87;;;8.60;99.90;;;;;;5110922;27;20442;-74
2022/01/14 05:31:45;;;;;;;45.38;20.45;;;8.60;99.90;;;;;;5107298;27;20579;-75
2022/01/14 05:34:11;;;;;;;43.42;19.90;;;8.60;99.90;;;;;;5108567;28;20400;-74
2022/01/14 05:36:37;;;;;;;52.43;21.47;;;8.50;99.90;;;;;;5110780;27;20410;-74
2022/01/14 05:39:04;;;;;;;44.17;20.77;;;8.50;99.90;;;;;;5110328;27;20408;-73
2022/01/14 05:41:30;;;;;;;49.58;21.42;;;8.40;99.90;;;;;;5105812;28;20746;-72
2022/01/14 05:43:55;;;;;;;42.13;21.33;;;8.40;99.90;;;;;;5107996;28;20427;-74
2022/01/14 05:46:21;;;;;;;47.35;22.63;;;8.30;99.90;;;;;;5117140;27;20950;-74
2022/01/14 05:48:47;;;;;;;54.28;23.67;;;8.30;99.90;;;;;;5111118;27;20765;-74
2022/01/14 05:51:13;;;;;;;52.53;24.73;;;8.30;99.90;;;;;;5106024;28;20407;-75
2022/01/14 05:53:38;;;;;;;52.60;24.50;;;8.30;99.90;;;;;;5108374;28;20909;-74
2022/01/14 05:56:04;;;;;;;52.40;25.02;;;8.20;99.90;;;;;;5099074;28;20404;-73
2022/01/14 05:58:29;;;;;;;48.07;23.70;;;8.20;99.90;;;;;;5106658;28;20403;-71
2022/01/14 06:00:55;;;;;;;51.40;24.83;;;8.20;99.90;;;;;;5104019;28;20417;-72
2022/01/14 06:03:22;;;;;;;50.40;25.20;;;8.20;99.90;;;;;;5107495;27;20441;-73
2022/01/14 06:05:49;;;;;;;53.28;26.73;;;8.20;99.90;;;;;;5101221;28;20396;-71
2022/01/14 06:08:15;;;;;;;58.17;27.13;;;8.10;99.90;;;;;;5096914;28;20461;-70
2022/01/14 06:10:40;;;;;;;51.83;25.87;;;8.10;99.90;;;;;;5087421;28;20437;-74
2022/01/14 06:13:06;;;;;;;52.10;25.75;;;8.20;99.90;;;;;;5107422;28;20407;-73
2022/01/14 06:15:32;;;;;;;55.20;24.60;;;8.20;99.90;;;;;;5106279;28;20435;-74
2022/01/14 06:17:58;;;;;;;52.38;24.38;;;8.20;99.90;;;;;;5105604;28;20416;-74
2022/01/14 06:20:24;;;;;;;54.83;24.33;;;8.30;99.90;;;;;;5108055;28;20887;-75
2022/01/14 06:22:50;;;;;;;47.33;24.57;;;8.30;99.90;;;;;;5106720;28;20891;-76
2022/01/14 06:25:16;;;;;;;52.20;23.57;;;8.40;99.90;;;;;;5117066;28;20734;-74
2022/01/14 06:27:41;;;;;;;48.53;23.98;;;8.40;99.90;;;;;;5106008;28;20434;-73
2022/01/14 06:30:08;;;;;;;49.85;21.77;;;8.50;99.90;;;;;;5107665;28;20400;-75
2022/01/14 06:32:41;;;;;;;51.90;23.63;;;8.50;99.90;;;;;;5107962;28;20899;-76
2022/01/14 06:35:11;;;;;;;49.00;23.50;;;8.50;99.90;;;;;;5108119;28;20452;-75
2022/01/14 06:37:37;;;;;;;49.30;23.35;;;8.50;99.90;;;;;;5104935;28;20503;-76
2022/01/14 06:40:04;;;;;;;48.97;22.60;;;8.50;99.90;;;;;;5115710;28;20418;-75
2022/01/14 06:42:30;;;;;;;44.13;22.70;;;8.60;99.90;;;;;;5106496;28;20420;-75
2022/01/14 06:44:55;;;;;;;51.40;22.73;;;8.60;99.90;;;;;;5107501;28;20497;-74
2022/01/14 06:47:22;;;;;;;44.83;21.50;;;8.70;99.90;;;;;;5106910;28;20461;-74
2022/01/14 06:49:48;;;;;;;47.15;22.83;;;8.70;99.90;;;;;;5105342;28;20714;-76
2022/01/14 06:52:14;;;;;;;39.67;19.70;;;8.70;99.90;;;;;;5084406;28;20418;-73
2022/01/14 06:54:40;;;;;;;42.33;19.05;;;8.70;99.90;;;;;;5112083;28;20921;-74
2022/01/14 06:57:06;;;;;;;43.38;19.58;;;8.70;99.90;;;;;;5095896;28;20404;-73
2022/01/14 06:59:32;;;;;;;40.75;19.15;;;8.70;99.90;;;;;;5107286;28;20400;-74
2022/01/14 07:01:58;;;;;;;41.97;18.67;;;8.70;99.90;;;;;;5103097;28;20503;-74
2022/01/14 07:04:24;;;;;;;42.10;18.58;;;8.70;99.90;;;;;;5105347;28;20407;-77
2022/01/14 07:06:50;;;;;;;41.27;15.80;;;8.70;99.90;;;;;;5104844;28;20403;-75
2022/01/14 07:09:15;;;;;;;36.47;17.70;;;8.70;99.90;;;;;;5107660;28;20412;-73
2022/01/14 07:11:41;;;;;;;36.53;15.23;;;8.80;99.90;;;;;;5102959;28;20440;-73
2022/01/14 07:14:07;;;;;;;28.38;13.13;;;8.80;99.90;;;;;;5107382;27;20423;-73
2022/01/14 07:16:34;;;;;;;32.10;12.80;;;8.80;99.90;;;;;;5112199;27;20408;-75
2022/01/14 07:19:02;;;;;;;34.33;13.75;;;8.70;99.90;;;;;;5114921;27;20503;-76
2022/01/14 07:21:27;;;;;;;37.85;13.32;;;8.70;99.90;;;;;;5096065;28;20923;-74
2022/01/14 07:23:53;;;;;;;37.50;14.30;;;8.80;99.90;;;;;;5113910;27;20416;-74
2022/01/14 07:26:20;;;;;;;35.50;14.60;;;8.80;99.90;;;;;;5118755;27;20396;-78
2022/01/14 07:28:45;;;;;;;40.38;15.85;;;8.80;99.90;;;;;;5099255;27;20408;-75
2022/01/14 07:31:11;;;;;;;32.30;13.35;;;8.90;99.90;;;;;;5112774;27;20402;-75
2022/01/14 07:33:37;;;;;;;37.53;14.20;;;8.90;99.90;;;;;;5121317;27;20883;-73
2022/01/14 07:36:03;;;;;;;34.13;15.15;;;8.90;99.90;;;;;;5108518;27;20393;-73
2022/01/14 07:38:28;;;;;;;33.17;15.13;;;8.90;99.90;;;;;;5110870;27;20410;-74
2022/01/14 07:40:54;;;;;;;38.95;14.48;;;8.90;99.90;;;;;;5112754;27;20435;-74
2022/01/14 07:43:21;;;;;;;35.83;15.00;;;9.00;99.90;;;;;;5110643;27;20430;-73
2022/01/14 07:45:48;;;;;;;38.95;16.92;;;9.00;99.90;;;;;;5113141;27;20430;-75
2022/01/14 07:48:14;;;;;;;34.72;16.30;;;9.00;99.90;;;;;;5111667;27;20417;-74
2022/01/14 07:50:40;;;;;;;32.85;14.45;;;9.00;99.90;;;;;;5113277;27;20421;-76
2022/01/14 07:53:06;;;;;;;37.65;15.65;;;9.00;99.90;;;;;;5118511;27;20387;-78
2022/01/14 07:55:31;;;;;;;34.57;14.20;;;9.00;99.90;;;;;;5118035;27;20772;-80
2022/01/14 07:57:57;;;;;;;34.55;13.43;;;9.00;99.90;;;;;;5094701;28;20435;-77
2022/01/14 08:00:23;;;;;;;35.13;15.27;;;9.00;99.90;;;;;;5115740;27;20399;-78
2022/01/14 08:02:49;;;;;;;34.58;17.17;;;9.00;99.90;;;;;;5115147;27;20449;-78
2022/01/14 08:05:16;;;;;;;36.63;16.47;;;9.00;99.90;;;;;;5121023;27;20436;-76
2022/01/14 08:07:46;;;;;;;33.50;16.08;;;9.00;99.90;;;;;;5118257;27;20423;-76
2022/01/14 08:10:16;;;;;;;35.25;16.65;;;9.00;99.90;;;;;;5121810;27;20917;-76
2022/01/14 08:12:42;;;;;;;35.58;17.98;;;9.00;99.90;;;;;;5110644;27;20442;-76
2022/01/14 08:15:11;;;;;;;37.28;17.98;;;9.00;99.90;;;;;;5117836;27;20439;-78
2022/01/14 08:17:36;;;;;;;40.08;17.05;;;9.10;99.90;;;;;;5113656;27;20450;-75
2022/01/14 08:20:04;;;;;;;37.38;16.95;;;9.10;99.90;;;;;;5111884;27;20991;-75
2022/01/14 08:22:31;;;;;;;36.15;18.90;;;9.10;99.90;;;;;;5114366;27;20413;-77
2022/01/14 08:24:57;;;;;;;35.33;17.75;;;9.10;99.90;;;;;;5109953;27;20418;-77
2022/01/14 08:27:26;;;;;;;41.83;19.33;;;9.10;99.90;;;;;;5113617;27;20408;-75
2022/01/14 08:29:52;;;;;;;37.03;19.50;;;9.10;99.90;;;;;;5117875;27;20424;-75
2022/01/14 08:32:18;;;;;;;40.72;20.75;;;9.20;99.90;;;;;;5115231;27;20406;-77
2022/01/14 08:34:44;;;;;;;36.10;18.77;;;9.20;99.90;;;;;;5109843;27;20927;-77
2022/01/14 08:37:09;;;;;;;37.25;16.10;;;9.20;99.90;;;;;;5106881;27;20769;-76
2022/01/14 08:39:35;;;;;;;37.83;18.10;;;9.20;99.90;;;;;;5118901;27;20792;-78
2022/01/14 08:42:02;;;;;;;35.63;18.87;;;9.20;99.90;;;;;;5113118;27;20422;-77
2022/01/14 08:44:28;;;;;;;30.95;14.93;;;9.20;99.90;;;;;;5111887;27;20407;-79
2022/01/14 08:46:55;;;;;;;34.17;15.93;;;9.20;99.90;;;;;;5115268;27;20482;-77
2022/01/14 08:49:21;;;;;;;37.13;16.17;;;9.30;99.90;;;;;;5118823;27;20408;-77
2022/01/14 08:51:48;;;;;;;32.63;17.27;;;9.30;99.90;;;;;;5121413;27;20399;-76
2022/01/14 08:54:13;;;;;;;34.90;16.67;;;9.30;99.90;;;;;;5109763;27;20499;-76
2022/01/14 08:56:39;;;;;;;39.20;15.40;;;9.30;99.90;;;;;;5113137;27;21272;-77
2022/01/14 08:59:05;;;;;;;33.90;16.05;;;9.30;99.90;;;;;;5124017;27;20430;-76
2022/01/14 09:01:31;;;;;;;39.70;16.83;;;9.30;99.90;;;;;;5120006;27;20449;-77
2022/01/14 09:03:57;;;;;;;36.92;16.33;;;9.30;99.90;;;;;;5117884;27;20405;-79
2022/01/14 09:06:23;;;;;;;37.22;15.75;;;9.30;99.90;;;;;;5110291;27;20412;-77
2022/01/14 09:08:49;;;;;;;39.83;15.00;;;9.40;99.90;;;;;;5113919;27;20507;-79
2022/01/14 09:11:15;;;;;;;30.47;15.93;;;9.30;99.90;;;;;;5112086;27;20439;-75
2022/01/14 09:13:41;;;;;;;33.00;16.05;;;9.40;99.90;;;;;;5115484;27;20387;-79
2022/01/14 09:16:07;;;;;;;36.33;15.50;;;9.40;99.90;;;;;;5112354;27;20415;-77
2022/01/14 09:18:33;;;;;;;38.93;15.67;;;9.40;99.90;;;;;;5121143;27;20489;-76
2022/01/14 09:20:59;;;;;;;35.05;15.95;;;9.40;99.90;;;;;;5112943;27;20995;-77
2022/01/14 09:23:26;;;;;;;32.90;14.60;;;9.50;99.90;;;;;;5115032;27;20412;-78
2022/01/14 09:25:52;;;;;;;36.70;14.82;;;9.50;99.90;;;;;;5112154;27;20399;-77
2022/01/14 09:28:18;;;;;;;32.15;12.27;;;9.60;99.90;;;;;;5120706;27;20258;-78
2022/01/14 09:30:44;;;;;;;27.17;11.52;;;9.10;99.90;;;;;;5114604;27;20182;-79
2022/01/14 09:33:09;;;;;;;28.92;11.52;;;8.80;99.90;;;;;;5115311;27;20759;-75
2022/01/14 09:35:37;;;;;;;31.60;11.75;;;8.60;99.90;;;;;;5120094;27;20179;-78
2022/01/14 09:38:03;;;;;;;29.58;10.50;;;8.50;99.90;;;;;;5119459;27;20269;-79
2022/01/14 09:40:29;;;;;;;26.60;11.43;;;8.30;99.90;;;;;;5113002;27;20197;-78
2022/01/14 09:43:00;;;;;;;30.35;10.50;;;8.20;99.90;;;;;;5115050;27;20235;-79
2022/01/14 09:45:29;;;;;;;27.48;10.68;;;8.20;99.90;;;;;;5115214;27;20193;-73
2022/01/14 09:47:56;;;;;;;39.35;10.50;;;8.10;99.90;;;;;;5115904;27;20335;-77
2022/01/14 09:50:22;;;;;;;28.40;10.40;;;8.10;99.90;;;;;;5120469;27;20271;-77
2022/01/14 09:52:51;;;;;;;30.35;10.20;;;8.10;99.90;;;;;;5108792;27;20254;-76
2022/01/14 09:55:26;;;;;;;25.08;10.18;;;8.10;99.90;;;;;;5110807;27;20487;-77
2022/01/14 09:57:57;;;;;;;25.25;9.98;;;8.60;99.90;;;;;;5120646;27;20427;-77
2022/01/14 10:00:23;;;;;;;25.80;10.23;;;9.00;99.90;;;;;;5115434;27;20402;-76
2022/01/14 10:02:52;;;;;;;27.15;10.55;;;9.30;99.90;;;;;;5111632;27;20761;-74
2022/01/14 10:05:38;;;;;;;23.30;9.48;;;9.40;99.90;;;;;;5111688;27;20510;-78
2022/01/14 10:08:14;;;;;;;28.70;9.60;;;9.50;99.90;;;;;;5106698;28;20777;-77
2022/01/14 10:11:01;;;;;;;26.48;9.43;;;9.60;99.90;;;;;;5114101;28;20411;-76
2022/01/14 10:13:32;;;;;;;28.45;9.35;;;9.70;99.90;;;;;;5123073;27;20413;-77
2022/01/14 10:16:05;;;;;;;25.30;8.73;;;9.70;99.90;;;;;;5114266;27;20507;-75
2022/01/14 10:18:33;;;;;;;25.30;9.05;;;9.80;99.90;;;;;;5107528;28;20415;-76
2022/01/14 10:21:01;;;;;;;25.55;10.25;;;9.80;99.90;;;;;;5116083;27;20442;-76
2022/01/14 10:23:39;;;;;;;27.67;9.82;;;9.90;99.90;;;;;;5111489;28;20415;-77
2022/01/14 10:26:05;;;;;;;28.70;10.60;;;9.90;99.90;;;;;;5103678;28;20496;-76
2022/01/14 10:28:30;;;;;;;28.00;9.23;;;9.90;99.90;;;;;;5106411;28;20492;-75
2022/01/14 10:30:56;;;;;;;28.95;9.52;;;9.90;99.90;;;;;;5102741;28;20412;-77
2022/01/14 10:33:27;;;;;;;22.00;8.90;;;10.00;99.90;;;;;;5112632;28;21037;-78
2022/01/14 10:35:53;;;;;;;25.58;8.65;;;9.90;99.90;;;;;;5106781;28;20404;-77
2022/01/14 10:38:21;;;;;;;26.63;8.57;;;9.90;99.90;;;;;;5102721;28;20476;-79
2022/01/14 10:40:48;;;;;;;23.90;8.90;;;10.00;99.90;;;;;;5110901;28;20408;-80
2022/01/14 10:43:16;;;;;;;36.03;15.32;;;10.00;99.90;;;;;;5103693;28;20478;-77
2022/01/14 10:45:44;;;;;;;26.63;9.93;;;10.00;99.90;;;;;;5112712;28;20408;-78
2022/01/14 10:48:13;;;;;;;26.40;8.93;;;10.00;99.90;;;;;;5112043;27;20424;-77
2022/01/14 10:50:47;;;;;;;21.77;8.03;;;10.00;99.90;;;;;;5123289;27;20403;-76
2022/01/14 10:53:32;;;;;;;20.38;8.13;;;10.10;99.90;;;;;;5122748;27;20874;-75
2022/01/14 10:56:11;;;;;;;28.13;10.20;;;10.10;99.90;;;;;;5116405;27;20404;-77
2022/01/14 10:58:43;;;;;;;29.70;12.07;;;10.10;99.90;;;;;;5126968;27;20426;-77
2022/01/14 11:01:15;;;;;;;25.65;10.80;;;10.10;99.90;;;;;;5111194;27;20482;-76
2022/01/14 11:03:45;;;;;;;27.97;8.70;;;10.20;99.90;;;;;;5111233;27;20409;-75
2022/01/14 11:06:28;;;;;;;23.25;9.88;;;10.20;99.90;;;;;;5122047;27;20420;-76
2022/01/14 11:09:10;;;;;;;21.55;9.23;;;10.20;99.90;;;;;;5110213;28;20416;-76
2022/01/14 11:11:39;;;;;;;29.80;11.68;;;10.20;99.90;;;;;;5107964;28;20415;-75
2022/01/14 11:14:07;;;;;;;28.20;12.80;;;10.20;99.90;;;;;;5112101;27;20403;-75
2022/01/14 11:16:33;;;;;;;42.55;21.13;;;10.20;99.90;;;;;;5107750;27;20897;-76
2022/01/14 11:19:01;;;;;;;30.23;15.73;;;10.20;99.90;;;;;;5111398;28;20420;-76
2022/01/14 11:24:14;;;;;;;33.27;16.20;;;10.20;99.90;;;;;;5110657;28;20479;-74
2022/01/14 11:26:43;;;;;;;28.65;11.20;;;10.20;99.90;;;;;;5109936;28;20415;-75
2022/01/14 11:29:15;;;;;;;29.80;11.73;;;10.10;99.90;;;;;;5093840;28;20412;-74
2022/01/14 11:31:42;;;;;;;28.00;10.93;;;10.20;99.90;;;;;;5110759;28;20440;-76
2022/01/14 11:34:28;;;;;;;28.33;10.40;;;10.20;99.90;;;;;;5118932;27;20411;-76
2022/01/14 11:36:57;;;;;;;27.70;9.32;;;10.30;99.90;;;;;;5109080;27;21409;-76
2022/01/14 11:39:25;;;;;;;24.00;9.82;;;10.30;99.90;;;;;;5095657;27;20400;-76
2022/01/14 11:41:56;;;;;;;23.50;9.45;;;10.30;99.90;;;;;;5109265;27;20440;-75
2022/01/14 11:44:44;;;;;;;23.58;8.40;;;10.40;99.90;;;;;;5124580;27;20536;-76
2022/01/14 11:47:29;;;;;;;22.25;8.73;;;10.40;99.90;;;;;;5111939;27;20520;-76
2022/01/14 11:49:56;;;;;;;24.77;8.93;;;10.30;99.90;;;;;;5102402;27;20418;-76
2022/01/14 11:52:42;;;;;;;25.63;9.93;;;10.30;99.90;;;;;;5091360;28;20408;-76
2022/01/14 11:55:31;;;;;;;22.55;9.02;;;10.30;99.90;;;;;;5103816;27;20405;-75
2022/01/14 11:57:59;;;;;;;31.80;10.35;;;10.30;99.90;;;;;;5081719;28;20988;-77
2022/01/14 12:00:25;;;;;;;23.33;8.90;;;10.40;99.90;;;;;;5094178;27;20406;-75
2022/01/14 12:02:51;;;;;;;35.25;13.55;;;10.40;99.90;;;;;;5094308;28;20436;-75
2022/01/14 12:05:20;;;;;;;32.13;15.15;;;10.40;99.90;;;;;;5104716;27;20405;-76
2022/01/14 12:08:01;;;;;;;31.13;15.75;;;10.40;99.90;;;;;;5101516;27;20876;-76
2022/01/14 12:10:42;;;;;;;31.23;12.77;;;10.40;99.90;;;;;;5110318;27;20410;-77
2022/01/14 12:18:59;;;;;;;27.40;11.17;;;10.40;99.90;;;;;;5109036;27;20900;-76
2022/01/14 12:21:43;;;;;;;24.77;11.27;;;10.50;99.90;;;;;;5100148;27;20413;-77
2022/01/14 12:24:30;;;;;;;25.38;12.05;;;10.50;99.90;;;;;;5111431;27;20425;-79
2022/01/14 12:27:00;;;;;;;24.92;10.75;;;10.60;99.90;;;;;;5106169;27;20894;-78
2022/01/14 12:29:38;;;;;;;22.77;11.50;;;10.60;99.90;;;;;;5125590;27;20461;-76
2022/01/14 12:32:14;;;;;;;31.75;13.27;;;10.60;99.90;;;;;;5102876;27;20495;-78
2022/01/14 12:34:55;;;;;;;29.17;12.85;;;10.60;99.90;;;;;;5106890;27;20756;-77
2022/01/14 12:37:41;;;;;;;28.13;14.02;;;10.60;99.90;;;;;;5103160;27;20418;-76
2022/01/14 12:40:17;;;;;;;23.58;14.40;;;10.60;99.90;;;;;;5107566;27;20388;-80
2022/01/14 12:42:50;;;;;;;31.58;14.32;;;10.70;99.90;;;;;;5107086;27;20476;-79
2022/01/14 12:45:28;;;;;;;33.47;14.63;;;10.70;99.90;;;;;;5118361;27;20408;-78
2022/01/14 12:48:06;;;;;;;36.28;16.55;;;10.70;99.90;;;;;;5112008;27;20439;-77
2022/01/14 12:50:32;;;;;;;33.10;16.63;;;10.70;99.90;;;;;;5118460;27;20403;-78
2022/01/14 12:52:57;;;;;;;33.35;16.60;;;10.60;99.90;;;;;;5098911;27;21005;-77
2022/01/14 12:55:23;;;;;;;32.93;15.40;;;10.70;99.90;;;;;;5095335;27;20398;-80
2022/01/14 12:57:55;;;;;;;32.22;14.90;;;10.70;99.90;;;;;;5114411;27;20935;-78
2022/01/14 13:00:22;;;;;;;32.95;12.65;;;10.70;99.90;;;;;;5113491;27;20406;-78
2022/01/14 13:02:48;;;;;;;30.88;12.77;;;10.70;99.90;;;;;;5095571;27;20498;-77
2022/01/14 13:05:19;;;;;;;22.87;11.60;;;10.70;99.90;;;;;;5099632;27;20513;-77
2022/01/14 13:07:46;;;;;;;24.58;12.23;;;10.70;99.90;;;;;;5121667;27;20495;-77